sensor_id;sensor_type;location;lat;lon;timestamp;P1;durP1;ratioP1;P2;durP2;ratioP2
74371;SDS011;62885;51.374;6.170;2022-11-12T00:00:34;16.02;;;8.27;;
74371;SDS011;62885;51.374;6.170;2022-11-12T00:02:59;14.10;;;7.57;;
74371;SDS011;62885;51.374;6.170;2022-11-12T00:05:25;14.07;;;6.25;;
74371;SDS011;62885;51.374;6.170;2022-11-12T00:07:51;9.68;;;6.13;;
74371;SDS011;62885;51.374;6.170;2022-11-12T00:10:16;13.80;;;6.28;;
74371;SDS011;62885;51.374;6.170;2022-11-12T00:12:42;12.38;;;6.45;;
74371;SDS011;62885;51.374;6.170;2022-11-12T00:15:08;21.17;;;9.70;;
74371;SDS011;62885;51.374;6.170;2022-11-12T00:17:34;18.08;;;9.10;;
74371;SDS011;62885;51.374;6.170;2022-11-12T00:19:59;15.77;;;8.50;;
74371;SDS011;62885;51.374;6.170;2022-11-12T00:22:25;15.05;;;8.73;;
74371;SDS011;62885;51.374;6.170;2022-11-12T00:24:50;11.82;;;7.60;;
74371;SDS011;62885;51.374;6.170;2022-11-12T00:27:15;11.73;;;6.32;;
74371;SDS011;62885;51.374;6.170;2022-11-12T00:29:41;9.38;;;5.32;;
74371;SDS011;62885;51.374;6.170;2022-11-12T00:32:06;9.95;;;5.75;;
74371;SDS011;62885;51.374;6.170;2022-11-12T00:34:35;10.52;;;5.43;;
74371;SDS011;62885;51.374;6.170;2022-11-12T00:37:01;11.05;;;6.10;;
74371;SDS011;62885;51.374;6.170;2022-11-12T00:39:27;11.07;;;5.25;;
74371;SDS011;62885;51.374;6.170;2022-11-12T00:41:53;12.57;;;7.47;;
74371;SDS011;62885;51.374;6.170;2022-11-12T00:44:18;17.10;;;6.70;;
74371;SDS011;62885;51.374;6.170;2022-11-12T00:46:44;16.33;;;9.20;;
74371;SDS011;62885;51.374;6.170;2022-11-12T00:49:10;19.70;;;10.30;;
74371;SDS011;62885;51.374;6.170;2022-11-12T00:51:35;19.38;;;10.65;;
74371;SDS011;62885;51.374;6.170;2022-11-12T00:54:02;18.40;;;9.60;;
74371;SDS011;62885;51.374;6.170;2022-11-12T00:56:27;25.70;;;12.10;;
74371;SDS011;62885;51.374;6.170;2022-11-12T00:58:53;20.77;;;11.48;;
74371;SDS011;62885;51.374;6.170;2022-11-12T01:01:18;20.88;;;12.10;;
74371;SDS011;62885;51.374;6.170;2022-11-12T01:03:44;19.13;;;10.93;;
74371;SDS011;62885;51.374;6.170;2022-11-12T01:06:11;16.67;;;7.90;;
74371;SDS011;62885;51.374;6.170;2022-11-12T01:08:39;18.98;;;9.82;;
74371;SDS011;62885;51.374;6.170;2022-11-12T01:11:06;23.90;;;12.77;;
74371;SDS011;62885;51.374;6.170;2022-11-12T01:13:33;24.20;;;11.82;;
74371;SDS011;62885;51.374;6.170;2022-11-12T01:16:03;18.15;;;9.73;;
74371;SDS011;62885;51.374;6.170;2022-11-12T01:18:50;19.42;;;9.98;;
74371;SDS011;62885;51.374;6.170;2022-11-12T01:21:17;21.55;;;11.40;;
74371;SDS011;62885;51.374;6.170;2022-11-12T01:23:43;21.67;;;10.45;;
74371;SDS011;62885;51.374;6.170;2022-11-12T01:26:09;22.50;;;10.55;;
74371;SDS011;62885;51.374;6.170;2022-11-12T01:28:37;20.08;;;9.90;;
74371;SDS011;62885;51.374;6.170;2022-11-12T01:33:36;16.67;;;8.50;;
74371;SDS011;62885;51.374;6.170;2022-11-12T01:36:02;14.82;;;8.27;;
74371;SDS011;62885;51.374;6.170;2022-11-12T01:38:34;18.63;;;9.38;;
74371;SDS011;62885;51.374;6.170;2022-11-12T01:41:00;12.82;;;7.55;;
74371;SDS011;62885;51.374;6.170;2022-11-12T01:43:26;13.27;;;7.55;;
74371;SDS011;62885;51.374;6.170;2022-11-12T01:45:51;15.25;;;7.57;;
74371;SDS011;62885;51.374;6.170;2022-11-12T01:48:40;15.82;;;8.13;;
74371;SDS011;62885;51.374;6.170;2022-11-12T01:51:11;15.52;;;7.97;;
74371;SDS011;62885;51.374;6.170;2022-11-12T01:53:39;15.40;;;7.72;;
74371;SDS011;62885;51.374;6.170;2022-11-12T01:56:10;16.02;;;7.93;;
74371;SDS011;62885;51.374;6.170;2022-11-12T01:58:36;13.80;;;5.53;;
74371;SDS011;62885;51.374;6.170;2022-11-12T02:01:04;12.00;;;5.30;;
74371;SDS011;62885;51.374;6.170;2022-11-12T02:03:29;9.35;;;4.97;;
74371;SDS011;62885;51.374;6.170;2022-11-12T02:05:57;10.27;;;4.75;;
74371;SDS011;62885;51.374;6.170;2022-11-12T02:08:25;10.52;;;4.45;;
74371;SDS011;62885;51.374;6.170;2022-11-12T02:10:53;11.45;;;5.00;;
74371;SDS011;62885;51.374;6.170;2022-11-12T02:13:18;11.07;;;4.57;;
74371;SDS011;62885;51.374;6.170;2022-11-12T02:16:03;11.43;;;5.18;;
74371;SDS011;62885;51.374;6.170;2022-11-12T02:18:31;8.45;;;4.50;;
74371;SDS011;62885;51.374;6.170;2022-11-12T02:20:57;11.77;;;5.72;;
74371;SDS011;62885;51.374;6.170;2022-11-12T02:23:27;8.27;;;4.63;;
74371;SDS011;62885;51.374;6.170;2022-11-12T02:25:52;8.55;;;5.03;;
74371;SDS011;62885;51.374;6.170;2022-11-12T02:28:17;12.18;;;4.97;;
74371;SDS011;62885;51.374;6.170;2022-11-12T02:30:47;8.70;;;5.03;;
74371;SDS011;62885;51.374;6.170;2022-11-12T02:33:13;11.45;;;5.32;;
74371;SDS011;62885;51.374;6.170;2022-11-12T02:35:39;9.48;;;4.70;;
74371;SDS011;62885;51.374;6.170;2022-11-12T02:38:05;9.50;;;5.28;;
74371;SDS011;62885;51.374;6.170;2022-11-12T02:40:31;12.00;;;5.38;;
74371;SDS011;62885;51.374;6.170;2022-11-12T02:42:57;9.43;;;4.60;;
74371;SDS011;62885;51.374;6.170;2022-11-12T02:45:23;9.50;;;5.32;;
74371;SDS011;62885;51.374;6.170;2022-11-12T02:47:48;11.35;;;5.47;;
74371;SDS011;62885;51.374;6.170;2022-11-12T02:50:14;11.57;;;5.38;;
74371;SDS011;62885;51.374;6.170;2022-11-12T02:52:40;11.75;;;5.60;;
74371;SDS011;62885;51.374;6.170;2022-11-12T02:55:06;14.40;;;5.45;;
74371;SDS011;62885;51.374;6.170;2022-11-12T02:57:33;10.07;;;5.50;;
74371;SDS011;62885;51.374;6.170;2022-11-12T02:59:59;9.25;;;5.38;;
74371;SDS011;62885;51.374;6.170;2022-11-12T03:02:25;9.60;;;4.97;;
74371;SDS011;62885;51.374;6.170;2022-11-12T03:04:50;8.02;;;4.55;;
74371;SDS011;62885;51.374;6.170;2022-11-12T03:07:15;10.00;;;4.65;;
74371;SDS011;62885;51.374;6.170;2022-11-12T03:09:41;10.00;;;5.22;;
74371;SDS011;62885;51.374;6.170;2022-11-12T03:12:06;9.98;;;5.00;;
74371;SDS011;62885;51.374;6.170;2022-11-12T03:14:31;10.95;;;5.15;;
74371;SDS011;62885;51.374;6.170;2022-11-12T03:16:57;12.63;;;4.88;;
74371;SDS011;62885;51.374;6.170;2022-11-12T03:19:22;10.27;;;5.40;;
74371;SDS011;62885;51.374;6.170;2022-11-12T03:21:47;11.75;;;4.90;;
74371;SDS011;62885;51.374;6.170;2022-11-12T03:24:13;10.95;;;5.13;;
74371;SDS011;62885;51.374;6.170;2022-11-12T03:26:38;10.02;;;5.43;;
74371;SDS011;62885;51.374;6.170;2022-11-12T03:29:04;10.18;;;5.50;;
74371;SDS011;62885;51.374;6.170;2022-11-12T03:31:29;10.38;;;5.88;;
74371;SDS011;62885;51.374;6.170;2022-11-12T03:33:54;11.82;;;4.97;;
74371;SDS011;62885;51.374;6.170;2022-11-12T03:36:20;9.90;;;5.40;;
74371;SDS011;62885;51.374;6.170;2022-11-12T03:38:45;8.90;;;4.95;;
74371;SDS011;62885;51.374;6.170;2022-11-12T03:41:10;10.57;;;5.95;;
74371;SDS011;62885;51.374;6.170;2022-11-12T03:43:36;11.07;;;5.35;;
74371;SDS011;62885;51.374;6.170;2022-11-12T03:46:01;10.52;;;5.55;;
74371;SDS011;62885;51.374;6.170;2022-11-12T03:48:27;11.23;;;5.53;;
74371;SDS011;62885;51.374;6.170;2022-11-12T03:50:56;12.57;;;5.95;;
74371;SDS011;62885;51.374;6.170;2022-11-12T03:53:23;9.70;;;5.18;;
74371;SDS011;62885;51.374;6.170;2022-11-12T03:55:48;11.30;;;5.05;;
74371;SDS011;62885;51.374;6.170;2022-11-12T03:58:14;9.65;;;4.57;;
74371;SDS011;62885;51.374;6.170;2022-11-12T04:00:39;9.02;;;5.03;;
74371;SDS011;62885;51.374;6.170;2022-11-12T04:03:04;9.05;;;4.70;;
74371;SDS011;62885;51.374;6.170;2022-11-12T04:05:30;11.15;;;5.03;;
74371;SDS011;62885;51.374;6.170;2022-11-12T04:08:15;9.75;;;5.00;;
74371;SDS011;62885;51.374;6.170;2022-11-12T04:13:31;9.65;;;4.85;;
74371;SDS011;62885;51.374;6.170;2022-11-12T04:16:01;9.73;;;4.88;;
74371;SDS011;62885;51.374;6.170;2022-11-12T04:18:50;10.38;;;4.95;;
74371;SDS011;62885;51.374;6.170;2022-11-12T04:21:38;17.02;;;5.20;;
74371;SDS011;62885;51.374;6.170;2022-11-12T04:24:15;10.48;;;5.07;;
74371;SDS011;62885;51.374;6.170;2022-11-12T04:26:59;9.77;;;4.78;;
74371;SDS011;62885;51.374;6.170;2022-11-12T04:29:24;10.68;;;4.85;;
74371;SDS011;62885;51.374;6.170;2022-11-12T04:32:08;9.32;;;4.90;;
74371;SDS011;62885;51.374;6.170;2022-11-12T04:34:34;8.35;;;5.35;;
74371;SDS011;62885;51.374;6.170;2022-11-12T04:37:02;8.75;;;4.82;;
74371;SDS011;62885;51.374;6.170;2022-11-12T04:39:29;8.43;;;4.40;;
74371;SDS011;62885;51.374;6.170;2022-11-12T04:41:54;10.27;;;5.18;;
74371;SDS011;62885;51.374;6.170;2022-11-12T04:44:38;9.52;;;5.22;;
74371;SDS011;62885;51.374;6.170;2022-11-12T04:47:22;10.70;;;5.13;;
74371;SDS011;62885;51.374;6.170;2022-11-12T04:49:48;12.02;;;5.38;;
74371;SDS011;62885;51.374;6.170;2022-11-12T04:52:13;12.20;;;5.83;;
74371;SDS011;62885;51.374;6.170;2022-11-12T04:54:38;10.98;;;5.28;;
74371;SDS011;62885;51.374;6.170;2022-11-12T04:57:04;11.82;;;4.72;;
74371;SDS011;62885;51.374;6.170;2022-11-12T04:59:29;9.30;;;4.40;;
74371;SDS011;62885;51.374;6.170;2022-11-12T05:01:55;9.25;;;4.40;;
74371;SDS011;62885;51.374;6.170;2022-11-12T05:04:20;10.50;;;5.05;;
74371;SDS011;62885;51.374;6.170;2022-11-12T05:06:46;10.77;;;5.05;;
74371;SDS011;62885;51.374;6.170;2022-11-12T05:09:18;8.10;;;4.72;;
74371;SDS011;62885;51.374;6.170;2022-11-12T05:11:44;10.50;;;5.13;;
74371;SDS011;62885;51.374;6.170;2022-11-12T05:14:10;8.93;;;4.57;;
74371;SDS011;62885;51.374;6.170;2022-11-12T05:16:36;11.38;;;5.00;;
74371;SDS011;62885;51.374;6.170;2022-11-12T05:19:01;9.57;;;4.85;;
74371;SDS011;62885;51.374;6.170;2022-11-12T05:21:27;11.32;;;4.82;;
74371;SDS011;62885;51.374;6.170;2022-11-12T05:24:12;11.35;;;4.72;;
74371;SDS011;62885;51.374;6.170;2022-11-12T05:26:37;10.35;;;4.63;;
74371;SDS011;62885;51.374;6.170;2022-11-12T05:29:03;9.88;;;4.80;;
74371;SDS011;62885;51.374;6.170;2022-11-12T05:31:28;10.35;;;4.28;;
74371;SDS011;62885;51.374;6.170;2022-11-12T05:33:54;9.23;;;4.95;;
74371;SDS011;62885;51.374;6.170;2022-11-12T05:36:19;8.57;;;5.03;;
74371;SDS011;62885;51.374;6.170;2022-11-12T05:38:45;8.75;;;4.47;;
74371;SDS011;62885;51.374;6.170;2022-11-12T05:41:11;9.70;;;5.25;;
74371;SDS011;62885;51.374;6.170;2022-11-12T05:43:36;8.48;;;4.97;;
74371;SDS011;62885;51.374;6.170;2022-11-12T05:46:01;8.95;;;5.00;;
74371;SDS011;62885;51.374;6.170;2022-11-12T05:48:27;8.77;;;5.30;;
74371;SDS011;62885;51.374;6.170;2022-11-12T05:50:52;13.90;;;5.53;;
74371;SDS011;62885;51.374;6.170;2022-11-12T05:53:18;9.57;;;5.30;;
74371;SDS011;62885;51.374;6.170;2022-11-12T05:55:43;10.82;;;5.40;;
74371;SDS011;62885;51.374;6.170;2022-11-12T05:58:08;10.07;;;5.03;;
74371;SDS011;62885;51.374;6.170;2022-11-12T06:00:34;8.98;;;5.28;;
74371;SDS011;62885;51.374;6.170;2022-11-12T06:03:06;7.72;;;4.03;;
74371;SDS011;62885;51.374;6.170;2022-11-12T06:05:32;12.48;;;4.53;;
74371;SDS011;62885;51.374;6.170;2022-11-12T06:07:58;10.25;;;5.32;;
74371;SDS011;62885;51.374;6.170;2022-11-12T06:10:23;8.35;;;4.75;;
74371;SDS011;62885;51.374;6.170;2022-11-12T06:12:48;11.00;;;5.55;;
74371;SDS011;62885;51.374;6.170;2022-11-12T06:15:14;9.85;;;4.90;;
74371;SDS011;62885;51.374;6.170;2022-11-12T06:17:40;11.63;;;5.28;;
74371;SDS011;62885;51.374;6.170;2022-11-12T06:20:06;10.95;;;5.40;;
74371;SDS011;62885;51.374;6.170;2022-11-12T06:22:32;9.38;;;5.47;;
74371;SDS011;62885;51.374;6.170;2022-11-12T06:24:57;11.75;;;5.47;;
74371;SDS011;62885;51.374;6.170;2022-11-12T06:27:22;10.90;;;5.13;;
74371;SDS011;62885;51.374;6.170;2022-11-12T06:29:48;12.55;;;5.95;;
74371;SDS011;62885;51.374;6.170;2022-11-12T06:32:13;15.18;;;6.75;;
74371;SDS011;62885;51.374;6.170;2022-11-12T06:34:39;12.13;;;5.15;;
74371;SDS011;62885;51.374;6.170;2022-11-12T06:37:04;11.38;;;5.30;;
74371;SDS011;62885;51.374;6.170;2022-11-12T06:39:30;13.30;;;5.00;;
74371;SDS011;62885;51.374;6.170;2022-11-12T06:41:55;10.27;;;5.00;;
74371;SDS011;62885;51.374;6.170;2022-11-12T06:44:20;9.55;;;5.00;;
74371;SDS011;62885;51.374;6.170;2022-11-12T06:46:46;12.48;;;5.13;;
74371;SDS011;62885;51.374;6.170;2022-11-12T06:49:13;10.23;;;5.25;;
74371;SDS011;62885;51.374;6.170;2022-11-12T06:51:39;11.07;;;4.78;;
74371;SDS011;62885;51.374;6.170;2022-11-12T06:54:05;10.10;;;5.07;;
74371;SDS011;62885;51.374;6.170;2022-11-12T06:56:30;9.95;;;4.90;;
74371;SDS011;62885;51.374;6.170;2022-11-12T06:58:56;9.27;;;4.75;;
74371;SDS011;62885;51.374;6.170;2022-11-12T07:01:21;11.85;;;5.55;;
74371;SDS011;62885;51.374;6.170;2022-11-12T07:03:50;8.40;;;4.57;;
74371;SDS011;62885;51.374;6.170;2022-11-12T07:06:17;11.35;;;6.22;;
74371;SDS011;62885;51.374;6.170;2022-11-12T07:08:44;11.93;;;5.60;;
74371;SDS011;62885;51.374;6.170;2022-11-12T07:11:10;11.38;;;5.47;;
74371;SDS011;62885;51.374;6.170;2022-11-12T07:13:36;13.32;;;6.22;;
74371;SDS011;62885;51.374;6.170;2022-11-12T07:16:02;13.10;;;6.00;;
74371;SDS011;62885;51.374;6.170;2022-11-12T07:18:30;9.25;;;4.93;;
74371;SDS011;62885;51.374;6.170;2022-11-12T07:20:56;9.52;;;5.25;;
74371;SDS011;62885;51.374;6.170;2022-11-12T07:23:23;10.18;;;5.00;;
74371;SDS011;62885;51.374;6.170;2022-11-12T07:25:55;8.95;;;4.68;;
74371;SDS011;62885;51.374;6.170;2022-11-12T07:28:25;11.18;;;4.70;;
74371;SDS011;62885;51.374;6.170;2022-11-12T07:30:57;11.68;;;5.05;;
74371;SDS011;62885;51.374;6.170;2022-11-12T07:33:27;9.90;;;4.93;;
74371;SDS011;62885;51.374;6.170;2022-11-12T07:38:23;8.85;;;4.65;;
74371;SDS011;62885;51.374;6.170;2022-11-12T07:40:49;10.52;;;6.00;;
74371;SDS011;62885;51.374;6.170;2022-11-12T07:43:14;7.78;;;4.78;;
74371;SDS011;62885;51.374;6.170;2022-11-12T07:45:39;15.05;;;5.43;;
74371;SDS011;62885;51.374;6.170;2022-11-12T07:48:05;12.13;;;5.80;;
74371;SDS011;62885;51.374;6.170;2022-11-12T07:50:30;9.32;;;4.72;;
74371;SDS011;62885;51.374;6.170;2022-11-12T07:52:58;9.38;;;4.78;;
74371;SDS011;62885;51.374;6.170;2022-11-12T07:55:24;9.30;;;4.30;;
74371;SDS011;62885;51.374;6.170;2022-11-12T07:57:49;9.77;;;5.03;;
74371;SDS011;62885;51.374;6.170;2022-11-12T08:00:15;8.77;;;5.28;;
74371;SDS011;62885;51.374;6.170;2022-11-12T08:02:40;11.57;;;6.13;;
74371;SDS011;62885;51.374;6.170;2022-11-12T08:05:06;10.47;;;5.30;;
74371;SDS011;62885;51.374;6.170;2022-11-12T08:07:31;9.82;;;4.75;;
74371;SDS011;62885;51.374;6.170;2022-11-12T08:09:57;9.40;;;4.95;;
74371;SDS011;62885;51.374;6.170;2022-11-12T08:12:22;10.05;;;5.18;;
74371;SDS011;62885;51.374;6.170;2022-11-12T08:14:48;11.73;;;5.60;;
74371;SDS011;62885;51.374;6.170;2022-11-12T08:17:13;8.85;;;4.95;;
74371;SDS011;62885;51.374;6.170;2022-11-12T08:19:39;9.00;;;5.25;;
74371;SDS011;62885;51.374;6.170;2022-11-12T08:22:04;8.80;;;4.63;;
74371;SDS011;62885;51.374;6.170;2022-11-12T08:24:29;10.10;;;4.50;;
74371;SDS011;62885;51.374;6.170;2022-11-12T08:26:55;9.63;;;5.07;;
74371;SDS011;62885;51.374;6.170;2022-11-12T08:29:20;9.73;;;4.80;;
74371;SDS011;62885;51.374;6.170;2022-11-12T08:31:47;8.20;;;4.65;;
74371;SDS011;62885;51.374;6.170;2022-11-12T08:34:12;9.18;;;5.13;;
74371;SDS011;62885;51.374;6.170;2022-11-12T08:36:38;7.97;;;4.30;;
74371;SDS011;62885;51.374;6.170;2022-11-12T08:39:04;10.18;;;4.70;;
74371;SDS011;62885;51.374;6.170;2022-11-12T08:41:30;10.93;;;5.22;;
74371;SDS011;62885;51.374;6.170;2022-11-12T08:43:56;8.68;;;5.10;;
74371;SDS011;62885;51.374;6.170;2022-11-12T08:46:22;8.48;;;5.00;;
74371;SDS011;62885;51.374;6.170;2022-11-12T08:48:47;9.52;;;4.95;;
74371;SDS011;62885;51.374;6.170;2022-11-12T08:51:12;9.10;;;4.97;;
74371;SDS011;62885;51.374;6.170;2022-11-12T08:53:38;6.95;;;4.10;;
74371;SDS011;62885;51.374;6.170;2022-11-12T08:56:03;9.30;;;5.05;;
74371;SDS011;62885;51.374;6.170;2022-11-12T08:58:29;9.45;;;5.13;;
74371;SDS011;62885;51.374;6.170;2022-11-12T09:00:54;7.75;;;4.53;;
74371;SDS011;62885;51.374;6.170;2022-11-12T09:03:22;9.88;;;5.20;;
74371;SDS011;62885;51.374;6.170;2022-11-12T09:05:49;7.38;;;3.78;;
74371;SDS011;62885;51.374;6.170;2022-11-12T09:08:17;8.55;;;4.75;;
74371;SDS011;62885;51.374;6.170;2022-11-12T09:10:44;10.32;;;4.60;;
74371;SDS011;62885;51.374;6.170;2022-11-12T09:13:10;8.52;;;4.82;;
74371;SDS011;62885;51.374;6.170;2022-11-12T09:15:36;7.93;;;4.50;;
74371;SDS011;62885;51.374;6.170;2022-11-12T09:18:03;7.93;;;4.60;;
74371;SDS011;62885;51.374;6.170;2022-11-12T09:20:31;10.15;;;5.47;;
74371;SDS011;62885;51.374;6.170;2022-11-12T09:22:57;7.97;;;4.70;;
74371;SDS011;62885;51.374;6.170;2022-11-12T09:25:25;9.05;;;4.35;;
74371;SDS011;62885;51.374;6.170;2022-11-12T09:27:50;9.02;;;5.00;;
74371;SDS011;62885;51.374;6.170;2022-11-12T09:30:15;9.17;;;5.70;;
74371;SDS011;62885;51.374;6.170;2022-11-12T09:32:41;9.23;;;5.47;;
74371;SDS011;62885;51.374;6.170;2022-11-12T09:35:06;10.48;;;5.50;;
74371;SDS011;62885;51.374;6.170;2022-11-12T09:37:32;9.02;;;4.43;;
74371;SDS011;62885;51.374;6.170;2022-11-12T09:39:57;8.82;;;4.93;;
74371;SDS011;62885;51.374;6.170;2022-11-12T09:42:22;8.52;;;5.13;;
74371;SDS011;62885;51.374;6.170;2022-11-12T09:44:54;12.45;;;5.00;;
74371;SDS011;62885;51.374;6.170;2022-11-12T09:48:07;13.10;;;6.10;;
74371;SDS011;62885;51.374;6.170;2022-11-12T09:50:20;8.10;;;4.65;;
74371;SDS011;62885;51.374;6.170;2022-11-12T09:52:51;8.80;;;5.03;;
74371;SDS011;62885;51.374;6.170;2022-11-12T09:55:41;8.93;;;5.13;;
74371;SDS011;62885;51.374;6.170;2022-11-12T09:58:13;13.10;;;5.53;;
74371;SDS011;62885;51.374;6.170;2022-11-12T10:00:41;12.95;;;5.45;;
74371;SDS011;62885;51.374;6.170;2022-11-12T10:03:21;9.80;;;5.38;;
74371;SDS011;62885;51.374;6.170;2022-11-12T10:05:54;11.35;;;5.70;;
74371;SDS011;62885;51.374;6.170;2022-11-12T10:20:07;9.65;;;4.90;;
74371;SDS011;62885;51.374;6.170;2022-11-12T10:25:17;8.98;;;4.97;;
74371;SDS011;62885;51.374;6.170;2022-11-12T10:27:43;11.05;;;5.63;;
74371;SDS011;62885;51.374;6.170;2022-11-12T10:30:17;10.65;;;5.30;;
74371;SDS011;62885;51.374;6.170;2022-11-12T10:32:45;11.40;;;6.00;;
74371;SDS011;62885;51.374;6.170;2022-11-12T10:35:13;9.73;;;5.25;;
74371;SDS011;62885;51.374;6.170;2022-11-12T10:40:30;10.27;;;5.53;;
74371;SDS011;62885;51.374;6.170;2022-11-12T10:45:25;11.18;;;4.97;;
74371;SDS011;62885;51.374;6.170;2022-11-12T10:47:51;9.65;;;5.60;;
74371;SDS011;62885;51.374;6.170;2022-11-12T10:55:32;8.45;;;4.60;;
74371;SDS011;62885;51.374;6.170;2022-11-12T10:58:03;9.95;;;4.95;;
74371;SDS011;62885;51.374;6.170;2022-11-12T11:00:54;9.13;;;5.15;;
74371;SDS011;62885;51.374;6.170;2022-11-12T11:03:30;10.00;;;5.75;;
74371;SDS011;62885;51.374;6.170;2022-11-12T11:05:59;11.13;;;5.88;;
74371;SDS011;62885;51.374;6.170;2022-11-12T11:08:40;9.38;;;4.97;;
74371;SDS011;62885;51.374;6.170;2022-11-12T11:11:29;9.00;;;5.40;;
74371;SDS011;62885;51.374;6.170;2022-11-12T11:13:55;10.45;;;5.30;;
74371;SDS011;62885;51.374;6.170;2022-11-12T11:16:32;9.00;;;5.40;;
74371;SDS011;62885;51.374;6.170;2022-11-12T11:19:18;9.95;;;5.50;;
74371;SDS011;62885;51.374;6.170;2022-11-12T11:29:43;10.60;;;6.53;;
74371;SDS011;62885;51.374;6.170;2022-11-12T11:32:32;13.25;;;9.30;;
74371;SDS011;62885;51.374;6.170;2022-11-12T11:51:59;9.18;;;5.60;;
74371;SDS011;62885;51.374;6.170;2022-11-12T11:54:47;8.88;;;5.38;;
74371;SDS011;62885;51.374;6.170;2022-11-12T11:57:15;8.13;;;4.78;;
74371;SDS011;62885;51.374;6.170;2022-11-12T12:00:34;9.00;;;4.88;;
74371;SDS011;62885;51.374;6.170;2022-11-12T12:08:51;10.95;;;4.93;;
74371;SDS011;62885;51.374;6.170;2022-11-12T12:11:12;9.15;;;4.53;;
74371;SDS011;62885;51.374;6.170;2022-11-12T12:13:46;9.73;;;5.25;;
74371;SDS011;62885;51.374;6.170;2022-11-12T12:19:24;8.52;;;5.13;;
74371;SDS011;62885;51.374;6.170;2022-11-12T12:21:54;9.98;;;5.40;;
74371;SDS011;62885;51.374;6.170;2022-11-12T12:24:27;8.75;;;5.25;;
74371;SDS011;62885;51.374;6.170;2022-11-12T12:27:01;9.07;;;5.07;;
74371;SDS011;62885;51.374;6.170;2022-11-12T12:29:38;8.57;;;4.90;;
74371;SDS011;62885;51.374;6.170;2022-11-12T12:32:15;8.85;;;5.28;;
74371;SDS011;62885;51.374;6.170;2022-11-12T12:34:44;8.48;;;5.07;;
74371;SDS011;62885;51.374;6.170;2022-11-12T12:39:54;18.98;;;6.05;;
74371;SDS011;62885;51.374;6.170;2022-11-12T12:42:29;9.70;;;5.20;;
74371;SDS011;62885;51.374;6.170;2022-11-12T12:45:23;9.82;;;5.90;;
74371;SDS011;62885;51.374;6.170;2022-11-12T12:47:49;10.02;;;5.63;;
74371;SDS011;62885;51.374;6.170;2022-11-12T12:50:16;8.95;;;5.60;;
74371;SDS011;62885;51.374;6.170;2022-11-12T12:53:00;7.63;;;5.10;;
74371;SDS011;62885;51.374;6.170;2022-11-12T12:58:00;9.85;;;4.25;;
74371;SDS011;62885;51.374;6.170;2022-11-12T13:00:27;8.50;;;4.78;;
74371;SDS011;62885;51.374;6.170;2022-11-12T13:02:57;8.57;;;4.18;;
74371;SDS011;62885;51.374;6.170;2022-11-12T13:07:52;7.82;;;4.38;;
74371;SDS011;62885;51.374;6.170;2022-11-12T13:15:44;8.25;;;5.10;;
74371;SDS011;62885;51.374;6.170;2022-11-12T13:18:10;9.80;;;4.85;;
74371;SDS011;62885;51.374;6.170;2022-11-12T13:21:16;6.50;;;4.35;;
74371;SDS011;62885;51.374;6.170;2022-11-12T13:29:20;9.02;;;5.00;;
74371;SDS011;62885;51.374;6.170;2022-11-12T13:31:49;8.25;;;4.72;;
74371;SDS011;62885;51.374;6.170;2022-11-12T13:34:34;10.77;;;5.30;;
74371;SDS011;62885;51.374;6.170;2022-11-12T13:37:01;8.10;;;4.70;;
74371;SDS011;62885;51.374;6.170;2022-11-12T13:39:30;8.45;;;5.03;;
74371;SDS011;62885;51.374;6.170;2022-11-12T13:41:59;6.93;;;4.13;;
74371;SDS011;62885;51.374;6.170;2022-11-12T13:44:51;9.68;;;5.40;;
74371;SDS011;62885;51.374;6.170;2022-11-12T13:47:17;10.95;;;4.93;;
74371;SDS011;62885;51.374;6.170;2022-11-12T13:49:46;10.20;;;5.32;;
74371;SDS011;62885;51.374;6.170;2022-11-12T13:52:13;8.63;;;4.57;;
74371;SDS011;62885;51.374;6.170;2022-11-12T13:54:39;8.30;;;5.03;;
74371;SDS011;62885;51.374;6.170;2022-11-12T13:57:39;9.85;;;5.57;;
74371;SDS011;62885;51.374;6.170;2022-11-12T14:02:42;9.80;;;5.25;;
74371;SDS011;62885;51.374;6.170;2022-11-12T14:05:13;7.43;;;4.45;;
74371;SDS011;62885;51.374;6.170;2022-11-12T14:18:31;8.05;;;4.25;;
74371;SDS011;62885;51.374;6.170;2022-11-12T14:21:05;8.23;;;4.45;;
74371;SDS011;62885;51.374;6.170;2022-11-12T14:23:36;8.32;;;4.28;;
74371;SDS011;62885;51.374;6.170;2022-11-12T14:26:02;9.30;;;4.20;;
74371;SDS011;62885;51.374;6.170;2022-11-12T14:28:32;10.20;;;5.10;;
74371;SDS011;62885;51.374;6.170;2022-11-12T14:30:59;8.10;;;4.20;;
74371;SDS011;62885;51.374;6.170;2022-11-12T14:33:26;7.35;;;4.22;;
74371;SDS011;62885;51.374;6.170;2022-11-12T14:35:53;8.50;;;4.18;;
74371;SDS011;62885;51.374;6.170;2022-11-12T14:38:27;7.90;;;3.65;;
74371;SDS011;62885;51.374;6.170;2022-11-12T14:40:58;7.85;;;4.03;;
74371;SDS011;62885;51.374;6.170;2022-11-12T14:48:56;11.95;;;5.97;;
74371;SDS011;62885;51.374;6.170;2022-11-12T14:51:25;7.15;;;4.40;;
74371;SDS011;62885;51.374;6.170;2022-11-12T14:53:56;9.23;;;3.70;;
74371;SDS011;62885;51.374;6.170;2022-11-12T14:56:32;7.72;;;3.90;;
74371;SDS011;62885;51.374;6.170;2022-11-12T14:59:02;6.75;;;3.90;;
74371;SDS011;62885;51.374;6.170;2022-11-12T15:01:29;7.40;;;3.67;;
74371;SDS011;62885;51.374;6.170;2022-11-12T15:06:35;6.50;;;3.47;;
74371;SDS011;62885;51.374;6.170;2022-11-12T15:09:01;9.65;;;4.43;;
74371;SDS011;62885;51.374;6.170;2022-11-12T15:11:32;8.55;;;3.70;;
74371;SDS011;62885;51.374;6.170;2022-11-12T15:14:01;7.15;;;4.40;;
74371;SDS011;62885;51.374;6.170;2022-11-12T15:16:32;8.55;;;3.38;;
74371;SDS011;62885;51.374;6.170;2022-11-12T15:21:46;9.13;;;4.63;;
74371;SDS011;62885;51.374;6.170;2022-11-12T15:24:18;7.38;;;3.95;;
74371;SDS011;62885;51.374;6.170;2022-11-12T15:29:23;8.45;;;3.58;;
74371;SDS011;62885;51.374;6.170;2022-11-12T15:32:01;7.25;;;3.35;;
74371;SDS011;62885;51.374;6.170;2022-11-12T15:37:04;8.10;;;4.15;;
74371;SDS011;62885;51.374;6.170;2022-11-12T15:39:31;8.27;;;3.80;;
74371;SDS011;62885;51.374;6.170;2022-11-12T15:42:11;9.18;;;4.22;;
74371;SDS011;62885;51.374;6.170;2022-11-12T15:44:42;7.82;;;4.50;;
74371;SDS011;62885;51.374;6.170;2022-11-12T15:47:08;6.53;;;4.10;;
74371;SDS011;62885;51.374;6.170;2022-11-12T15:49:45;7.78;;;4.38;;
74371;SDS011;62885;51.374;6.170;2022-11-12T15:52:15;9.88;;;7.20;;
74371;SDS011;62885;51.374;6.170;2022-11-12T15:54:40;9.30;;;4.63;;
74371;SDS011;62885;51.374;6.170;2022-11-12T15:57:07;9.27;;;4.28;;
74371;SDS011;62885;51.374;6.170;2022-11-12T15:59:37;8.82;;;4.05;;
74371;SDS011;62885;51.374;6.170;2022-11-12T16:02:02;8.50;;;4.28;;
74371;SDS011;62885;51.374;6.170;2022-11-12T16:04:32;6.63;;;3.40;;
74371;SDS011;62885;51.374;6.170;2022-11-12T16:06:58;7.53;;;4.33;;
74371;SDS011;62885;51.374;6.170;2022-11-12T16:09:23;7.53;;;3.78;;
74371;SDS011;62885;51.374;6.170;2022-11-12T16:11:49;8.63;;;4.32;;
74371;SDS011;62885;51.374;6.170;2022-11-12T16:14:15;8.00;;;3.72;;
74371;SDS011;62885;51.374;6.170;2022-11-12T16:16:41;7.60;;;4.18;;
74371;SDS011;62885;51.374;6.170;2022-11-12T16:19:12;7.20;;;3.58;;
74371;SDS011;62885;51.374;6.170;2022-11-12T16:21:39;6.88;;;4.10;;
74371;SDS011;62885;51.374;6.170;2022-11-12T16:24:04;10.32;;;4.60;;
74371;SDS011;62885;51.374;6.170;2022-11-12T16:26:30;8.60;;;4.90;;
74371;SDS011;62885;51.374;6.170;2022-11-12T16:28:57;7.25;;;3.88;;
74371;SDS011;62885;51.374;6.170;2022-11-12T16:31:23;10.38;;;4.15;;
74371;SDS011;62885;51.374;6.170;2022-11-12T16:33:49;8.48;;;4.57;;
74371;SDS011;62885;51.374;6.170;2022-11-12T16:36:14;9.00;;;4.47;;
74371;SDS011;62885;51.374;6.170;2022-11-12T16:38:40;8.98;;;5.05;;
74371;SDS011;62885;51.374;6.170;2022-11-12T16:41:10;8.27;;;4.72;;
74371;SDS011;62885;51.374;6.170;2022-11-12T16:43:36;9.70;;;5.45;;